createdAt,value
2023-05-10T00:00:23.677Z,100189.56
2023-05-10T00:03:25.695Z,100194.97
2023-05-10T00:06:27.919Z,100181.19
2023-05-10T00:09:32.097Z,100196.97
2023-05-10T00:12:33.875Z,100187.47
2023-05-10T00:15:36.053Z,100180.59
2023-05-10T00:18:37.903Z,100187.03
2023-05-10T00:21:39.676Z,100168.97
2023-05-10T00:24:42.984Z,100179.22
2023-05-10T00:27:44.781Z,100171.78
2023-05-10T00:30:46.513Z,100161.00
2023-05-10T00:33:48.295Z,100175.56
2023-05-10T00:36:50.109Z,100176.47
2023-05-10T00:39:54.305Z,100170.97
2023-05-10T00:42:56.707Z,100169.00
2023-05-10T00:45:58.880Z,100155.78
2023-05-10T00:49:00.941Z,100170.94
2023-05-10T00:52:04.105Z,100165.88
2023-05-10T00:55:10.701Z,100174.06
2023-05-10T00:58:13.362Z,100158.72
2023-05-10T01:01:15.951Z,100167.72
2023-05-10T01:04:17.872Z,100172.97
2023-05-10T01:07:20.635Z,100150.97
2023-05-10T01:10:24.088Z,100069.41
2023-05-10T01:13:33.558Z,100172.91
2023-05-10T01:16:38.469Z,100168.91
2023-05-10T01:19:40.617Z,100169.19
2023-05-10T01:23:11.040Z,100167.56
2023-05-10T01:26:35.433Z,100167.03
2023-05-10T01:30:21.902Z,100155.09
2023-05-10T01:33:29.875Z,100164.25
2023-05-10T01:36:36.160Z,100164.66
2023-05-10T01:39:45.747Z,100166.53
2023-05-10T01:42:53.393Z,100160.13
2023-05-10T01:46:05.726Z,100159.81
2023-05-10T01:49:11.695Z,100155.63
2023-05-10T01:52:20.339Z,100164.25
2023-05-10T01:55:24.295Z,100160.09
2023-05-10T01:58:35.379Z,100126.97
2023-05-10T02:01:38.951Z,100153.06
2023-05-10T02:04:43.198Z,100162.72
2023-05-10T02:07:46.588Z,100156.44
2023-05-10T02:10:50.855Z,100146.38
2023-05-10T02:13:55.024Z,100144.03
2023-05-10T02:16:59.610Z,100114.66
2023-05-10T02:20:04.980Z,100144.84
2023-05-10T02:23:10.094Z,100147.66
2023-05-10T02:26:14.468Z,100136.63
2023-05-10T02:29:17.893Z,100140.53
2023-05-10T02:32:20.485Z,100140.91
2023-05-10T02:35:25.298Z,100139.47
2023-05-10T02:38:28.064Z,100127.22
2023-05-10T02:41:33.465Z,100145.56
2023-05-10T02:44:37.686Z,100147.78
2023-05-10T02:47:40.638Z,100125.66
2023-05-10T02:50:45.977Z,100119.06
2023-05-10T02:53:49.304Z,100139.31
2023-05-10T02:56:54.911Z,100111.53
2023-05-10T02:59:56.941Z,100118.75
2023-05-10T03:02:59.537Z,100121.25
2023-05-10T03:06:02.821Z,100126.63
2023-05-10T03:09:05.626Z,100102.59
2023-05-10T03:12:15.192Z,100130.44
2023-05-10T03:15:26.112Z,100130.84
2023-05-10T03:18:34.891Z,100118.56
2023-05-10T03:21:42.702Z,100137.56
2023-05-10T03:24:47.745Z,100136.47
2023-05-10T03:27:50.945Z,100125.47
2023-05-10T03:30:54.117Z,100113.66
2023-05-10T03:33:56.080Z,100118.81
2023-05-10T03:36:59.397Z,100128.97
2023-05-10T03:40:02.253Z,100121.09
2023-05-10T03:43:04.164Z,100125.53
2023-05-10T03:46:06.600Z,100088.84
2023-05-10T03:49:09.136Z,100129.84
2023-05-10T03:52:13.048Z,100117.50
2023-05-10T03:55:15.230Z,100131.16
2023-05-10T03:58:17.089Z,100134.66
2023-05-10T04:01:18.880Z,100116.28
2023-05-10T04:04:22.450Z,100123.19
2023-05-10T04:07:25.641Z,100127.44
2023-05-10T04:10:28.160Z,100132.13
2023-05-10T04:13:29.926Z,100123.19
2023-05-10T04:16:31.922Z,100124.03
2023-05-10T04:19:34.780Z,100128.69
2023-05-10T04:22:38.016Z,100131.56
2023-05-10T04:25:40.121Z,100133.28
2023-05-10T04:28:41.891Z,100131.22
2023-05-10T04:31:43.737Z,100128.91
2023-05-10T04:34:46.136Z,100134.47
2023-05-10T04:37:49.398Z,100119.09
2023-05-10T04:40:51.192Z,100141.94
2023-05-10T04:43:53.113Z,100140.19
2023-05-10T04:46:54.992Z,100125.38
2023-05-10T04:49:57.043Z,100142.41
2023-05-10T04:53:00.405Z,100134.50
2023-05-10T04:56:02.217Z,100141.22
2023-05-10T04:59:05.126Z,100130.41
2023-05-10T05:02:07.040Z,100130.91
2023-05-10T05:05:09.377Z,100127.13
2023-05-10T05:08:12.605Z,100122.28
2023-05-10T05:11:14.434Z,100130.31
2023-05-10T05:14:17.017Z,100140.28
2023-05-10T05:17:18.846Z,100139.63
2023-05-10T05:20:21.201Z,100139.13
2023-05-10T05:23:25.910Z,100134.66
2023-05-10T05:26:27.761Z,100122.66
2023-05-10T05:29:29.929Z,100123.84
2023-05-10T05:32:31.885Z,100148.97
2023-05-10T05:35:34.480Z,100152.63
2023-05-10T05:38:37.862Z,100140.94
2023-05-10T05:41:39.733Z,100148.28
2023-05-10T05:44:41.980Z,100168.75
2023-05-10T05:47:43.888Z,100159.78
2023-05-10T05:50:46.670Z,100156.09
2023-05-10T05:53:49.863Z,100167.59
2023-05-10T05:56:51.821Z,100177.06
2023-05-10T05:59:54.161Z,100157.94
2023-05-10T06:02:56.073Z,100114.81
2023-05-10T06:05:58.858Z,100115.63
2023-05-10T06:09:02.098Z,100106.53
2023-05-10T06:12:04.238Z,100105.56
2023-05-10T06:15:06.988Z,100091.22
2023-05-10T06:18:08.826Z,100101.81
2023-05-10T06:21:10.891Z,100112.09
2023-05-10T06:24:14.134Z,100107.16
2023-05-10T06:27:15.953Z,100075.91
2023-05-10T06:30:17.851Z,100125.66
2023-05-10T06:33:19.640Z,100177.09
2023-05-10T06:36:21.895Z,100178.75
2023-05-10T06:39:25.138Z,100181.47
2023-05-10T06:42:28.388Z,100111.75
2023-05-10T06:45:30.207Z,100115.59
2023-05-10T06:48:32.075Z,100151.69
2023-05-10T06:51:34.000Z,100148.47
2023-05-10T06:54:38.118Z,100147.13
2023-05-10T06:57:39.856Z,100135.81
2023-05-10T07:00:44.640Z,100149.44
2023-05-10T07:03:46.540Z,100157.63
2023-05-10T07:06:48.485Z,100160.41
2023-05-10T07:09:52.283Z,100156.75
2023-05-10T07:12:54.288Z,100159.88
2023-05-10T07:15:56.140Z,100159.00
2023-05-10T07:18:58.009Z,100158.34
2023-05-10T07:22:00.694Z,100149.34
2023-05-10T07:25:04.205Z,100151.19
2023-05-10T07:28:06.825Z,100150.28
2023-05-10T07:31:08.800Z,100153.19
2023-05-10T07:34:11.016Z,100147.97
2023-05-10T07:37:13.644Z,100152.44
2023-05-10T07:40:16.903Z,100144.41
2023-05-10T07:43:19.667Z,100138.44
2023-05-10T07:46:21.712Z,100146.28
2023-05-10T07:49:25.280Z,100138.19
2023-05-10T07:52:27.159Z,100143.88
2023-05-10T07:55:31.198Z,100129.13
2023-05-10T07:58:33.195Z,100143.84
2023-05-10T08:01:36.095Z,100133.09
2023-05-10T08:04:37.991Z,100113.75
2023-05-10T08:07:40.695Z,100136.09
2023-05-10T08:10:44.168Z,100146.25
2023-05-10T08:13:46.610Z,100153.25
2023-05-10T08:16:48.639Z,100151.88
2023-05-10T08:19:50.561Z,100147.19
2023-05-10T08:22:52.458Z,100137.72
2023-05-10T08:25:55.743Z,100148.09
2023-05-10T08:28:58.460Z,100091.34
2023-05-10T08:32:01.943Z,100145.25
2023-05-10T08:35:04.976Z,100135.22
2023-05-10T08:38:06.799Z,100140.47
2023-05-10T08:41:12.202Z,100134.72
2023-05-10T08:44:13.862Z,100134.28
2023-05-10T08:47:19.235Z,100126.72
2023-05-10T08:50:21.420Z,100132.03
2023-05-10T08:53:26.777Z,100129.50
2023-05-10T08:56:30.930Z,100136.72
2023-05-10T08:59:34.152Z,100142.03
2023-05-10T09:02:38.366Z,100132.47
2023-05-10T09:05:40.314Z,100141.78
2023-05-10T09:08:43.889Z,100134.38
2023-05-10T09:11:47.670Z,100136.00
2023-05-10T09:14:51.783Z,100134.97
2023-05-10T09:17:53.938Z,100140.06
2023-05-10T09:20:56.031Z,100137.09
2023-05-10T09:23:58.340Z,100135.66
2023-05-10T09:27:02.816Z,100136.69
2023-05-10T09:30:07.612Z,100127.44
2023-05-10T09:33:09.450Z,100127.63
2023-05-10T09:36:11.995Z,100122.03
2023-05-10T09:39:13.868Z,100135.72
2023-05-10T09:42:19.648Z,100116.66
2023-05-10T09:45:22.259Z,100119.53
2023-05-10T09:48:25.914Z,100111.81
2023-05-10T09:51:30.350Z,100094.00
2023-05-10T09:54:32.943Z,100119.91
2023-05-10T09:57:36.240Z,100123.53
2023-05-10T10:00:40.317Z,100125.34
2023-05-10T10:03:44.348Z,100112.19
2023-05-10T10:06:46.343Z,100103.38
2023-05-10T10:09:48.410Z,100107.16
2023-05-10T10:12:51.919Z,100103.69
2023-05-10T10:15:55.892Z,100105.00
2023-05-10T10:18:57.998Z,100090.22
2023-05-10T10:22:00.214Z,100091.97
2023-05-10T10:25:02.429Z,100102.03
2023-05-10T10:28:23.123Z,100087.63
2023-05-10T10:31:32.157Z,100085.22
2023-05-10T10:34:34.675Z,100075.59
2023-05-10T10:37:45.161Z,100073.44
2023-05-10T10:40:47.179Z,100089.03
2023-05-10T10:43:50.387Z,100095.22
2023-05-10T10:47:03.781Z,100069.34
2023-05-10T10:50:09.092Z,100073.22
2023-05-10T10:53:12.517Z,100060.47
2023-05-10T10:56:16.330Z,100070.72
2023-05-10T10:59:29.414Z,100058.03
2023-05-10T11:02:36.344Z,100053.63
2023-05-10T11:05:41.574Z,100060.78
2023-05-10T11:08:47.117Z,100053.31
2023-05-10T11:11:56.116Z,100040.31
2023-05-10T11:15:00.079Z,100039.09
2023-05-10T11:18:19.086Z,100047.56
2023-05-10T11:21:21.060Z,100041.72
2023-05-10T11:24:24.293Z,100015.75
2023-05-10T11:27:26.670Z,99987.59
2023-05-10T11:30:32.009Z,100030.03
2023-05-10T11:33:43.784Z,100031.59
2023-05-10T11:36:52.819Z,100035.91
2023-05-10T11:39:56.134Z,100017.66
2023-05-10T11:42:58.061Z,100021.16
2023-05-10T11:46:01.516Z,100023.94
2023-05-10T11:49:05.626Z,100023.69
2023-05-10T11:52:08.251Z,100023.44
2023-05-10T11:55:11.030Z,100020.53
2023-05-10T11:58:12.835Z,100016.38
2023-05-10T12:01:16.362Z,100020.34
2023-05-10T12:04:18.423Z,100015.50
2023-05-10T12:07:20.644Z,100023.31
2023-05-10T12:10:28.266Z,100019.00
2023-05-10T12:13:30.126Z,100019.25
2023-05-10T12:16:33.592Z,100010.19
2023-05-10T12:19:39.635Z,100022.91
2023-05-10T12:22:41.596Z,100002.00
2023-05-10T12:25:44.389Z,100021.38
2023-05-10T12:28:46.159Z,100016.19
2023-05-10T12:31:55.483Z,100019.69
2023-05-10T12:34:58.857Z,99923.88
2023-05-10T12:38:00.782Z,99999.56
2023-05-10T12:41:05.253Z,100003.84
2023-05-10T12:44:07.174Z,100000.69
2023-05-10T12:47:11.835Z,99982.72
2023-05-10T12:50:13.594Z,99986.16
2023-05-10T12:53:16.668Z,99978.66
2023-05-10T12:56:18.528Z,99989.59
2023-05-10T12:59:20.893Z,99976.13
2023-05-10T13:02:24.327Z,99973.78
2023-05-10T13:05:26.798Z,99969.28
2023-05-10T13:08:30.732Z,99962.22
2023-05-10T13:11:32.754Z,99976.34
2023-05-10T13:14:34.552Z,99973.88
2023-05-10T13:17:39.961Z,99973.28
2023-05-10T13:20:44.121Z,99965.50
2023-05-10T13:23:46.030Z,99963.66
2023-05-10T13:26:47.855Z,99950.66
2023-05-10T13:29:49.730Z,99950.78
2023-05-10T13:32:53.006Z,99942.53
2023-05-10T13:35:55.935Z,99935.44
2023-05-10T13:38:57.846Z,99944.56
2023-05-10T13:41:59.629Z,99941.78
2023-05-10T13:45:02.843Z,99923.56
2023-05-10T13:48:06.909Z,99923.97
2023-05-10T13:51:09.635Z,99928.06
2023-05-10T13:54:13.453Z,99910.84
2023-05-10T13:57:17.739Z,99932.50
2023-05-10T14:00:20.087Z,99915.00
2023-05-10T14:03:23.336Z,99920.25
2023-05-10T14:06:25.671Z,99914.97
2023-05-10T14:09:27.394Z,99897.34
2023-05-10T14:12:29.102Z,99913.19
2023-05-10T14:15:30.891Z,99913.16
2023-05-10T14:18:34.062Z,99886.81
2023-05-10T14:21:36.651Z,99900.84
2023-05-10T14:24:39.238Z,99902.50
2023-05-10T14:27:41.766Z,99871.75
2023-05-10T14:30:43.574Z,99906.84
2023-05-10T14:33:47.084Z,99898.41
2023-05-10T14:36:48.906Z,99894.66
2023-05-10T14:39:51.578Z,99873.19
2023-05-10T14:42:54.065Z,99893.66
2023-05-10T14:45:56.642Z,99883.31
2023-05-10T14:48:59.798Z,99897.97
2023-05-10T14:52:01.752Z,99885.16
2023-05-10T14:55:05.246Z,99884.53
2023-05-10T14:58:07.073Z,99906.81
2023-05-10T15:01:08.959Z,99889.91
2023-05-10T15:04:14.488Z,99900.44
2023-05-10T15:07:18.418Z,99891.78
2023-05-10T15:10:20.573Z,99903.75
2023-05-10T15:13:22.358Z,99889.66
2023-05-10T15:16:24.767Z,99890.44
2023-05-10T15:19:28.442Z,99906.47
2023-05-10T15:22:32.436Z,99907.28
2023-05-10T15:25:36.174Z,99904.53
2023-05-10T15:28:38.439Z,99904.31
2023-05-10T15:31:40.586Z,99906.34
2023-05-10T15:34:44.860Z,99910.44
2023-05-10T15:37:48.439Z,99907.72
2023-05-10T15:40:50.237Z,99896.56
2023-05-10T15:43:52.384Z,99895.75
2023-05-10T15:46:54.317Z,99894.16
2023-05-10T15:49:57.867Z,99900.69
2023-05-10T15:52:59.747Z,99824.97
2023-05-10T15:56:02.459Z,99879.78
2023-05-10T15:59:06.171Z,99884.94
2023-05-10T16:02:09.226Z,99874.97
2023-05-10T16:05:13.972Z,99878.25
2023-05-10T16:08:16.388Z,99883.81
2023-05-10T16:11:18.173Z,99897.50
2023-05-10T16:14:23.005Z,99898.19
2023-05-10T16:17:25.020Z,99894.75
2023-05-10T16:20:30.109Z,99894.56
2023-05-10T16:23:32.252Z,99884.47
2023-05-10T16:26:40.785Z,99897.44
2023-05-10T16:29:42.716Z,99899.88
2023-05-10T16:32:44.573Z,99902.66
2023-05-10T16:35:48.751Z,99895.03
2023-05-10T16:38:51.298Z,99903.06
2023-05-10T16:41:53.339Z,99883.66
2023-05-10T16:44:55.262Z,99899.97
2023-05-10T16:47:57.307Z,99916.44
2023-05-10T16:51:02.476Z,99899.34
2023-05-10T16:54:05.455Z,99904.28
2023-05-10T16:57:08.587Z,99914.31
2023-05-10T17:00:12.110Z,99911.78
2023-05-10T17:03:14.037Z,99848.22
2023-05-10T17:06:17.616Z,99925.69
2023-05-10T17:09:20.667Z,99917.25
2023-05-10T17:12:23.278Z,99921.06
2023-05-10T17:15:25.035Z,99931.34
2023-05-10T17:18:27.117Z,99907.09
2023-05-10T17:21:32.131Z,99921.53
2023-05-10T17:24:34.020Z,99935.31
2023-05-10T17:27:36.203Z,99930.75
2023-05-10T17:30:38.029Z,99930.22
2023-05-10T17:33:40.336Z,99932.38
2023-05-10T17:36:43.577Z,99944.66
2023-05-10T17:39:46.503Z,99935.81
2023-05-10T17:42:48.866Z,99940.72
2023-05-10T17:45:50.772Z,99933.34
2023-05-10T17:48:53.130Z,99934.28
2023-05-10T17:51:56.356Z,99945.09
2023-05-10T17:55:00.142Z,99951.66
2023-05-10T17:58:02.106Z,99952.53
2023-05-10T18:01:04.556Z,99949.53
2023-05-10T18:04:07.967Z,99951.50
2023-05-10T18:07:11.186Z,99954.63
2023-05-10T18:10:13.059Z,99962.44
2023-05-10T18:13:14.951Z,99963.59
2023-05-10T18:16:16.828Z,99973.66
2023-05-10T18:19:19.075Z,99976.13
2023-05-10T18:22:22.692Z,99972.72
2023-05-10T18:25:25.630Z,99984.22
2023-05-10T18:28:27.612Z,99979.94
2023-05-10T18:31:30.220Z,99881.66
2023-05-10T18:34:32.090Z,99983.38
2023-05-10T18:37:36.018Z,99992.19
2023-05-10T18:40:39.094Z,100001.06
2023-05-10T18:43:42.728Z,99980.28
2023-05-10T18:46:46.245Z,99997.56
2023-05-10T18:49:48.519Z,100001.47
2023-05-10T18:52:52.061Z,99988.03
2023-05-10T18:55:58.910Z,100008.34
2023-05-10T18:59:02.900Z,100008.03
2023-05-10T19:02:05.119Z,100009.56
2023-05-10T19:05:08.211Z,100018.19
2023-05-10T19:08:11.580Z,100021.50
2023-05-10T19:11:14.968Z,100009.03
2023-05-10T19:14:17.509Z,100018.84
2023-05-10T19:17:20.837Z,100018.69
2023-05-10T19:20:23.992Z,100020.84
2023-05-10T19:23:27.380Z,100018.34
2023-05-10T19:26:30.582Z,100020.34
2023-05-10T19:29:32.706Z,100019.00
2023-05-10T19:32:36.556Z,100014.53
2023-05-10T19:35:39.770Z,100028.81
2023-05-10T19:38:43.047Z,100021.00
2023-05-10T19:41:45.500Z,100029.00
2023-05-10T19:44:48.556Z,100016.84
2023-05-10T19:47:51.013Z,100019.84
2023-05-10T19:50:53.554Z,100005.28
2023-05-10T19:53:56.839Z,100016.00
2023-05-10T19:56:59.594Z,100018.84
2023-05-10T20:00:01.564Z,100022.31
2023-05-10T20:03:07.000Z,100036.97
2023-05-10T20:06:14.670Z,100038.66
2023-05-10T20:09:47.368Z,100042.94
2023-05-10T20:13:10.393Z,100041.09
2023-05-10T20:16:15.858Z,100041.63
2023-05-10T20:19:21.441Z,100034.63
2023-05-10T20:22:25.756Z,100038.97
2023-05-10T20:25:29.087Z,100038.28
2023-05-10T20:28:32.070Z,100037.56
2023-05-10T20:31:34.079Z,100043.22
2023-05-10T20:34:39.472Z,100047.91
2023-05-10T20:37:41.568Z,100048.09
2023-05-10T20:40:45.585Z,100047.91
2023-05-10T20:43:47.483Z,100047.91
2023-05-10T20:46:49.870Z,100038.97
2023-05-10T20:49:51.771Z,100021.34
2023-05-10T20:52:53.640Z,100040.31
2023-05-10T20:55:57.122Z,100015.84
2023-05-10T20:58:59.051Z,100006.53
2023-05-10T21:02:01.325Z,100027.03
2023-05-10T21:05:03.979Z,100037.00
2023-05-10T21:08:05.974Z,100030.97
2023-05-10T21:11:10.042Z,100024.03
2023-05-10T21:14:11.923Z,100027.00
2023-05-10T21:17:14.752Z,100034.66
2023-05-10T21:20:17.143Z,100029.66
2023-05-10T21:23:19.146Z,100026.50
2023-05-10T21:26:22.378Z,100035.31
2023-05-10T21:29:24.571Z,100038.31
2023-05-10T21:32:26.389Z,100023.81
2023-05-10T21:35:30.394Z,100029.66
2023-05-10T21:38:33.352Z,100034.81
2023-05-10T21:41:36.501Z,100036.31
2023-05-10T21:44:38.809Z,100035.47
2023-05-10T21:47:40.645Z,99987.94
2023-05-10T21:50:43.838Z,99998.41
2023-05-10T21:53:45.661Z,100036.16
2023-05-10T21:56:49.156Z,100015.69
2023-05-10T21:59:51.560Z,100031.66
2023-05-10T22:02:53.526Z,100035.47
2023-05-10T22:05:55.386Z,100025.78
2023-05-10T22:08:57.521Z,100025.31
2023-05-10T22:12:00.693Z,100040.31
2023-05-10T22:18:07.475Z,100037.81
2023-05-10T22:21:09.554Z,100035.97
2023-05-10T22:24:11.407Z,100035.78
2023-05-10T22:27:15.117Z,100048.09
2023-05-10T22:30:18.220Z,100035.97
2023-05-10T22:33:20.241Z,100047.28
2023-05-10T22:36:22.711Z,100039.47
2023-05-10T22:39:24.577Z,100050.28
2023-05-10T22:42:27.824Z,100038.97
2023-05-10T22:45:29.640Z,100039.13
2023-05-10T22:48:34.670Z,100016.19
2023-05-10T22:51:37.451Z,100046.31
2023-05-10T22:54:39.224Z,100047.97
2023-05-10T22:57:43.200Z,100047.13
2023-05-10T23:00:45.113Z,100035.00
2023-05-10T23:03:47.430Z,100046.97
2023-05-10T23:06:49.268Z,100052.13
2023-05-10T23:09:51.045Z,100041.78
2023-05-10T23:12:56.047Z,100043.16
2023-05-10T23:15:58.018Z,100041.00
2023-05-10T23:19:00.413Z,100009.34
2023-05-10T23:22:02.267Z,100041.97
2023-05-10T23:25:04.997Z,100042.59
2023-05-10T23:28:08.168Z,100044.19
2023-05-10T23:31:10.318Z,100042.88
2023-05-10T23:34:12.294Z,100046.69
2023-05-10T23:37:15.710Z,100044.44
2023-05-10T23:40:17.786Z,100044.38
2023-05-10T23:43:21.828Z,100037.00
2023-05-10T23:46:23.712Z,100058.31
2023-05-10T23:49:25.575Z,100059.19
2023-05-10T23:52:28.353Z,100063.34
2023-05-10T23:55:30.199Z,100063.16
2023-05-10T23:58:33.598Z,100062.81
